Time;durP1;ratioP1;P1;durP2;ratioP2;P2;SDS_P1;SDS_P2;PMS_P1;PMS_P2;Temp;Humidity;BMP_temperature;BMP_pressure;BME280_temperature;BME280_humidity;BME280_pressure;Samples;Min_cycle;Max_cycle;Signal;HPM_P1;HPM_P2
2022/04/07 00:00:19;;;;;;;;;2.00;0.00;;;;;12.65;64.65;99534.84;5175901;27;45058;-73
2022/04/07 00:02:45;;;;;;;;;1.25;1.00;;;;;12.62;64.26;99533.06;5174873;27;45113;-75
2022/04/07 00:05:11;;;;;;;;;0.50;0.50;;;;;12.64;63.95;99530.41;5168644;27;45223;-72
2022/04/07 00:07:36;;;;;;;;;0.75;0.75;;;;;12.58;63.94;99517.00;5169713;27;45145;-75
2022/04/07 00:10:02;;;;;;;;;2.00;0.25;;;;;12.58;64.24;99506.28;5175143;27;45236;-71
2022/04/07 00:12:29;;;;;;;;;3.00;1.25;;;;;12.56;64.45;99503.59;5174149;27;46238;-73
2022/04/07 00:14:54;;;;;;;;;1.00;0.00;;;;;12.44;64.04;99463.41;5174956;27;45234;-75
2022/04/07 00:17:20;;;;;;;;;0.75;0.75;;;;;12.65;63.09;99494.66;5174689;27;45099;-76
2022/04/07 00:19:45;;;;;;;;;0.25;0.25;;;;;12.18;63.78;99413.50;5175401;27;45095;-75
2022/04/07 00:22:11;;;;;;;;;2.00;1.00;;;;;12.45;64.27;99479.50;5174538;27;46009;-71
2022/04/07 00:24:36;;;;;;;;;1.00;1.00;;;;;12.62;63.02;99502.69;5174607;27;45163;-72
2022/04/07 00:27:01;;;;;;;;;1.00;1.00;;;;;12.44;63.83;99472.38;5174752;27;45068;-75
2022/04/07 00:29:27;;;;;;;;;1.00;1.00;;;;;12.64;64.15;99491.09;5175152;27;44998;-72
2022/04/07 00:32:05;;;;;;;;;0.75;0.75;;;;;12.46;63.95;99472.38;5162863;27;46006;-73
2022/04/07 00:34:31;;;;;;;;;3.00;1.25;;;;;12.39;63.95;99462.53;5173613;27;45178;-71
2022/04/07 00:36:56;;;;;;;;;1.00;0.75;;;;;11.82;63.68;99353.72;5161454;27;45077;-72
2022/04/07 00:39:21;;;;;;;;;0.00;0.00;;;;;12.58;63.89;99499.13;5174931;27;44999;-70
2022/04/07 00:41:47;;;;;;;;;2.00;0.75;;;;;12.47;63.04;99469.69;5174475;27;45405;-71
2022/04/07 00:44:12;;;;;;;;;0.25;0.25;;;;;12.60;63.44;99486.59;5171463;27;44987;-72
2022/04/07 00:46:39;;;;;;;;;1.00;1.00;;;;;12.61;62.72;99466.09;5171193;27;44968;-72
2022/04/07 00:49:05;;;;;;;;;1.00;1.00;;;;;12.36;63.47;99425.97;5175950;27;45155;-71
2022/04/07 00:51:32;;;;;;;;;4.00;1.00;;;;;12.49;63.56;99446.47;5159484;27;45428;-72
2022/04/07 00:53:58;;;;;;;;;0.75;0.75;;;;;12.20;62.36;99367.97;5161821;27;45130;-74
2022/04/07 00:56:25;;;;;;;;;4.75;2.75;;;;;12.63;62.86;99445.53;5177940;27;45143;-74
2022/04/07 00:58:50;;;;;;;;;3.00;1.00;;;;;12.63;62.68;99432.13;5178429;27;45164;-75
2022/04/07 01:01:18;;;;;;;;;3.00;1.50;;;;;12.51;62.85;99417.88;5177920;27;46267;-73
2022/04/07 01:03:44;;;;;;;;;3.00;1.00;;;;;12.54;63.61;99393.75;5177482;27;45096;-74
2022/04/07 01:06:09;;;;;;;;;1.00;1.00;;;;;12.68;63.53;99417.81;5178551;27;44913;-74
2022/04/07 01:08:34;;;;;;;;;2.00;0.00;;;;;12.67;62.71;99399.97;5178507;27;45021;-75
2022/04/07 01:11:00;;;;;;;;;1.00;1.00;;;;;12.28;63.10;99328.69;5178399;27;45561;-76
2022/04/07 01:13:43;;;;;;;;;3.00;1.75;;;;;12.46;62.39;99357.19;5178365;27;45122;-74
2022/04/07 01:16:08;;;;;;;;;4.00;1.00;;;;;12.45;62.50;99358.97;5172723;27;45336;-75
2022/04/07 01:18:34;;;;;;;;;2.00;1.75;;;;;12.66;63.15;99384.78;5177812;27;45147;-73
2022/04/07 01:20:59;;;;;;;;;1.00;1.00;;;;;12.65;62.72;99380.31;5177492;27;45121;-74
2022/04/07 01:23:29;;;;;;;;;1.25;1.25;;;;;12.67;63.24;99385.66;5177852;27;45157;-72
2022/04/07 01:25:55;;;;;;;;;1.00;1.00;;;;;12.52;63.23;99346.44;5178681;27;45175;-74
2022/04/07 01:28:20;;;;;;;;;0.75;0.75;;;;;12.21;63.58;99300.13;5177940;27;45085;-73
2022/04/07 01:30:46;;;;;;;;;1.00;1.00;;;;;12.57;63.13;99371.41;5176893;27;45622;-74
2022/04/07 01:33:12;;;;;;;;;2.50;0.00;;;;;12.65;63.73;99377.63;5177802;27;45008;-73
2022/04/07 01:35:38;;;;;;;;;1.00;1.00;;;;;12.62;63.35;99380.34;5178668;27;45216;-71
2022/04/07 01:38:03;;;;;;;;;1.00;1.00;;;;;11.98;63.98;99271.66;5178424;27;45041;-75
2022/04/07 01:40:33;;;;;;;;;3.25;1.00;;;;;12.35;63.76;99327.75;5177242;27;45622;-76
2022/04/07 01:43:01;;;;;;;;;1.25;1.00;;;;;12.52;63.74;99360.72;5176070;27;45191;-75
2022/04/07 01:45:26;;;;;;;;;1.00;1.00;;;;;12.32;63.96;99327.75;5173150;27;45082;-75
2022/04/07 01:47:54;;;;;;;;;0.00;0.00;;;;;12.28;64.89;99323.31;5177318;27;45158;-72
2022/04/07 01:50:23;;;;;;;;;2.00;0.25;;;;;12.46;64.63;99346.47;5174778;27;45726;-73
2022/04/07 01:52:48;;;;;;;;;1.00;1.00;;;;;12.29;64.35;99319.72;5177385;27;45169;-74
2022/04/07 01:55:15;;;;;;;;;1.75;0.00;;;;;12.46;64.38;99338.44;5177314;27;45096;-74
2022/04/07 01:57:42;;;;;;;;;1.25;0.00;;;;;11.97;64.12;99248.47;5178136;27;45120;-75
2022/04/07 02:00:08;;;;;;;;;1.00;1.00;;;;;12.42;65.12;99321.47;5176574;27;45291;-76
2022/04/07 02:02:34;;;;;;;;;6.00;2.75;;;;;12.50;65.16;99340.19;5168691;27;45115;-73
2022/04/07 02:05:08;;;;;;;;;2.25;0.00;;;;;12.28;66.39;99294.75;5175604;27;45271;-73
2022/04/07 02:07:33;;;;;;;;;1.50;1.00;;;;;12.31;67.24;99307.25;5164843;27;45034;-72
2022/04/07 02:09:59;;;;;;;;;2.00;1.00;;;;;12.37;67.34;99335.78;5177413;27;45799;-70
2022/04/07 02:12:29;;;;;;;;;0.00;0.00;;;;;12.35;68.65;99335.78;5177773;27;45021;-75
2022/04/07 02:14:59;;;;;;;;;0.75;0.75;;;;;12.27;68.19;99327.78;5177363;27;45095;-71
2022/04/07 02:17:25;;;;;;;;;1.00;1.00;;;;;12.26;68.42;99326.00;5177308;27;45235;-71
2022/04/07 02:19:54;;;;;;;;;2.00;1.00;;;;;12.09;68.07;99290.34;5176780;27;45509;-75
2022/04/07 02:22:20;;;;;;;;;0.50;0.50;;;;;12.29;68.45;99331.34;5176726;27;45207;-74
2022/04/07 02:24:47;;;;;;;;;1.75;1.25;;;;;12.00;68.45;99275.22;5175691;27;45257;-71
2022/04/07 02:27:13;;;;;;;;;0.00;0.00;;;;;12.32;68.28;99322.41;5177446;27;45066;-70
2022/04/07 02:29:39;;;;;;;;;1.00;1.00;;;;;12.31;68.55;99308.13;5176826;27;45124;-74
2022/04/07 02:32:05;;;;;;;;;0.25;0.00;;;;;12.25;67.57;99280.50;5176915;27;45148;-70
2022/04/07 02:34:30;;;;;;;;;1.00;1.00;;;;;12.36;68.03;99286.69;5175076;27;45116;-71
2022/04/07 02:36:56;;;;;;;;;5.50;1.00;;;;;12.30;68.83;99266.16;5174744;27;45069;-73
2022/04/07 02:39:21;;;;;;;;;3.50;0.25;;;;;12.36;68.89;99270.63;5150188;27;46064;-72
2022/04/07 02:41:47;;;;;;;;;4.00;1.00;;;;;12.38;69.68;99270.63;5176119;27;45180;-71
2022/04/07 02:44:12;;;;;;;;;0.67;0.67;;;;;12.38;69.98;99265.25;5174431;27;45168;-70
2022/04/07 02:46:38;;;;;;;;;1.00;1.00;;;;;12.35;69.43;99274.19;5176578;27;45019;-71
2022/04/07 02:49:06;;;;;;;;;0.50;0.00;;;;;12.31;70.41;99238.50;5176633;27;45043;-72
2022/04/07 02:51:31;;;;;;;;;3.00;1.50;;;;;12.35;70.45;99247.41;5176741;27;45078;-71
2022/04/07 02:53:58;;;;;;;;;1.00;0.00;;;;;12.10;70.40;99206.47;5176729;27;44973;-71
2022/04/07 02:56:27;;;;;;;;;2.00;0.75;;;;;12.33;70.41;99231.34;5177506;27;45049;-73
2022/04/07 02:58:53;;;;;;;;;1.00;1.00;;;;;12.35;71.13;99224.19;5175784;27;45735;-74
2022/04/07 03:01:18;;;;;;;;;1.00;1.00;;;;;12.38;70.13;99225.09;5176947;27;45139;-73
2022/04/07 03:03:44;;;;;;;;;1.00;1.00;;;;;12.33;70.76;99193.84;5177106;27;44672;-72
2022/04/07 03:06:09;;;;;;;;;0.25;0.25;;;;;12.43;70.34;99220.59;5176968;27;44979;-70
2022/04/07 03:08:34;;;;;;;;;4.50;1.25;;;;;12.35;70.71;99196.53;5176740;27;45192;-74
2022/04/07 03:11:01;;;;;;;;;1.50;1.00;;;;;12.24;70.90;99176.94;5175386;27;45120;-74
2022/04/07 03:13:26;;;;;;;;;2.00;1.00;;;;;12.33;70.59;99183.13;5154723;27;45334;-73
2022/04/07 03:15:51;;;;;;;;;1.00;1.00;;;;;12.15;70.33;99157.34;5174147;27;45276;-71
2022/04/07 03:18:17;;;;;;;;;1.00;1.00;;;;;12.22;70.27;99150.19;5173385;27;45731;-71
2022/04/07 03:20:43;;;;;;;;;1.00;1.00;;;;;12.37;70.18;99173.28;5169570;27;45121;-72
2022/04/07 03:23:08;;;;;;;;;5.75;1.50;;;;;12.42;70.87;99170.59;5170063;27;45194;-69
2022/04/07 03:25:34;;;;;;;;;3.50;3.50;;;;;12.33;70.13;99142.97;5176656;27;45160;-69
2022/04/07 03:27:59;;;;;;;;;2.00;1.00;;;;;12.30;70.72;99136.75;5175799;27;45107;-69
2022/04/07 03:30:24;;;;;;;;;4.25;1.25;;;;;11.84;70.99;99044.22;5175783;27;45447;-70
2022/04/07 03:32:50;;;;;;;;;0.00;0.00;;;;;12.12;71.21;99082.41;5176480;27;45396;-70
2022/04/07 03:35:15;;;;;;;;;2.25;2.00;;;;;12.45;70.73;99127.72;5176571;27;45108;-73
2022/04/07 03:37:41;;;;;;;;;1.00;1.00;;;;;12.26;70.46;99084.09;5168726;27;47080;-70
2022/04/07 03:40:08;;;;;;;;;0.75;0.75;;;;;12.31;71.15;99082.31;5175987;27;44984;-72
2022/04/07 03:42:33;;;;;;;;;3.25;2.00;;;;;12.40;71.30;99086.69;5175874;27;45014;-72
2022/04/07 03:44:59;;;;;;;;;0.00;0.00;;;;;12.47;71.13;99099.13;5175904;27;45018;-71
2022/04/07 03:47:24;;;;;;;;;1.75;1.75;;;;;12.50;71.78;99080.34;5162614;27;50361;-72
2022/04/07 03:49:50;;;;;;;;;4.50;1.00;;;;;12.28;70.94;99037.69;5176002;27;45201;-73
2022/04/07 03:52:16;;;;;;;;;2.75;2.00;;;;;12.10;72.33;98992.31;5175868;27;45226;-75
2022/04/07 03:54:41;;;;;;;;;3.50;1.00;;;;;12.57;71.13;99051.72;5156923;27;45264;-72
2022/04/07 03:57:07;;;;;;;;;3.00;2.25;;;;;12.46;71.12;99023.25;5175830;27;45516;-72
2022/04/07 03:59:38;;;;;;;;;2.00;2.00;;;;;12.53;71.83;99040.16;5175422;27;45100;-73
2022/04/07 04:02:05;;;;;;;;;2.25;1.00;;;;;12.54;71.79;99052.66;5175824;27;45124;-73
2022/04/07 04:04:30;;;;;;;;;2.00;2.00;;;;;12.39;71.18;99023.31;5171306;27;45014;-72
2022/04/07 04:06:56;;;;;;;;;3.00;2.00;;;;;12.54;71.25;99023.19;5172103;27;45574;-70
2022/04/07 04:09:21;;;;;;;;;2.00;1.00;;;;;12.33;71.17;98984.97;5175299;27;45090;-71
2022/04/07 04:11:47;;;;;;;;;2.00;1.00;;;;;12.46;71.96;99006.31;5173944;27;44967;-71
2022/04/07 04:14:12;;;;;;;;;0.75;0.75;;;;;12.56;71.74;99001.75;5157084;27;45099;-73
2022/04/07 04:16:37;;;;;;;;;1.00;1.00;;;;;12.59;71.86;99005.28;5175335;27;45271;-74
2022/04/07 04:19:03;;;;;;;;;2.00;0.00;;;;;12.61;71.62;99013.31;5175812;27;45141;-70
2022/04/07 04:21:28;;;;;;;;;1.00;1.00;;;;;12.60;71.71;98995.44;5174793;27;45484;-74
2022/04/07 04:23:54;;;;;;;;;1.50;1.00;;;;;12.09;71.91;98916.50;5177701;27;45050;-71
2022/04/07 04:26:19;;;;;;;;;1.00;1.00;;;;;12.19;71.26;98935.13;5178794;27;45649;-72
2022/04/07 04:28:44;;;;;;;;;4.75;1.50;;;;;12.61;71.60;98998.09;5178783;27;45144;-72
2022/04/07 04:31:10;;;;;;;;;1.00;1.00;;;;;12.62;71.36;98996.31;5178853;27;45058;-71
2022/04/07 04:33:35;;;;;;;;;1.00;0.67;;;;;12.64;71.70;99002.56;5178899;27;45131;-71
2022/04/07 04:36:00;;;;;;;;;2.00;0.67;;;;;12.25;71.36;98916.34;5178833;27;45726;-70
2022/04/07 04:38:26;;;;;;;;;4.75;1.00;;;;;12.68;70.53;98999.81;5178629;27;45174;-72
2022/04/07 04:40:51;;;;;;;;;1.75;1.75;;;;;12.70;71.73;98992.66;5178755;27;44943;-71
2022/04/07 04:43:16;;;;;;;;;1.00;1.00;;;;;12.73;71.77;98987.25;5179799;27;44942;-71
2022/04/07 04:45:42;;;;;;;;;2.50;2.50;;;;;12.24;71.30;98887.78;5178599;27;45137;-73
2022/04/07 04:48:07;;;;;;;;;2.25;0.75;;;;;12.76;72.12;98978.28;5178727;27;45047;-73
2022/04/07 04:50:34;;;;;;;;;1.50;1.50;;;;;12.71;71.09;98980.13;5178890;27;45031;-74
2022/04/07 04:52:59;;;;;;;;;1.50;1.00;;;;;12.65;70.89;98948.94;5178058;27;45076;-71
2022/04/07 04:55:25;;;;;;;;;3.00;3.00;;;;;12.60;70.64;98942.72;5178185;27;46193;-73
2022/04/07 04:57:50;;;;;;;;;2.00;1.00;;;;;12.80;71.43;98974.69;5176943;27;45032;-70
2022/04/07 05:00:16;;;;;;;;;4.00;1.50;;;;;12.77;70.57;98952.38;5178639;27;45336;-72
2022/04/07 05:02:41;;;;;;;;;1.75;1.75;;;;;12.84;70.24;98964.81;5177703;27;45100;-72
2022/04/07 05:05:07;;;;;;;;;1.00;1.00;;;;;12.85;70.36;98961.22;5178137;27;45090;-72
2022/04/07 05:07:32;;;;;;;;;1.00;1.00;;;;;12.77;70.23;98939.88;5178266;27;45167;-75
2022/04/07 05:09:58;;;;;;;;;1.00;1.00;;;;;12.87;70.70;98962.09;5177449;27;45192;-73
2022/04/07 05:12:23;;;;;;;;;2.00;2.00;;;;;12.62;69.77;98911.47;5177989;27;44911;-72
2022/04/07 05:14:48;;;;;;;;;3.75;2.00;;;;;12.84;70.41;98938.03;5177949;27;45841;-71
2022/04/07 05:17:14;;;;;;;;;3.75;0.25;;;;;12.85;69.98;98934.41;5177132;27;45141;-70
2022/04/07 05:19:41;;;;;;;;;3.00;1.00;;;;;12.25;69.96;98831.53;5154691;27;45198;-72
2022/04/07 05:22:06;;;;;;;;;1.00;1.00;;;;;12.75;70.12;98914.00;5165475;27;45086;-69
2022/04/07 05:24:31;;;;;;;;;2.75;1.25;;;;;12.76;70.31;98916.66;5176183;27;45544;-71
2022/04/07 05:26:57;;;;;;;;;2.00;1.50;;;;;12.91;70.22;98918.25;5174093;27;45273;-70
2022/04/07 05:29:23;;;;;;;;;2.75;2.75;;;;;12.98;70.27;98941.41;5174646;27;45192;-72
2022/04/07 05:31:48;;;;;;;;;3.50;2.25;;;;;12.95;69.90;98911.97;5175391;27;45231;-71
2022/04/07 05:34:13;;;;;;;;;2.00;1.75;;;;;12.97;69.27;98919.97;5173470;27;46288;-72
2022/04/07 05:36:40;;;;;;;;;1.00;1.00;;;;;12.76;70.28;98873.78;5170230;27;45190;-72
2022/04/07 05:39:05;;;;;;;;;2.50;2.50;;;;;12.74;69.54;98854.16;5159257;27;45087;-71
2022/04/07 05:41:31;;;;;;;;;2.00;0.00;;;;;12.89;69.54;98866.47;5178211;27;45087;-71
2022/04/07 05:43:56;;;;;;;;;2.00;1.75;;;;;13.01;68.43;98885.06;5177252;27;45269;-71
2022/04/07 05:46:22;;;;;;;;;1.33;0.00;;;;;13.08;67.81;98901.94;5176741;27;44966;-72
2022/04/07 05:48:47;;;;;;;;;2.33;1.00;;;;;13.11;67.94;98893.00;5154262;27;45515;-69
2022/04/07 05:51:13;;;;;;;;;1.00;1.00;;;;;12.90;67.53;98858.41;5170477;27;45231;-69
2022/04/07 05:53:39;;;;;;;;;5.00;3.00;;;;;13.14;68.16;98883.09;5176186;27;45102;-71
2022/04/07 05:56:04;;;;;;;;;4.00;2.00;;;;;12.88;68.04;98830.72;5175170;27;45273;-73
2022/04/07 05:58:30;;;;;;;;;1.00;1.00;;;;;13.16;68.17;98888.44;5176190;27;45158;-75
2022/04/07 06:00:55;;;;;;;;;4.00;1.00;;;;;13.02;67.63;98860.03;5176480;27;44992;-73
2022/04/07 06:03:21;;;;;;;;;0.00;0.00;;;;;13.16;67.60;98872.34;5175805;27;45203;-72
2022/04/07 06:05:52;;;;;;;;;2.00;2.00;;;;;13.18;68.31;98894.66;5175020;27;44952;-73
2022/04/07 06:08:18;;;;;;;;;2.50;1.00;;;;;13.05;67.98;98856.41;5173021;27;45222;-72
2022/04/07 06:10:43;;;;;;;;;2.50;2.00;;;;;13.19;67.63;98883.03;5175295;27;45026;-74
2022/04/07 06:13:09;;;;;;;;;1.00;1.00;;;;;13.19;67.46;98875.88;5176203;27;52872;-74
2022/04/07 06:15:34;;;;;;;;;3.00;1.00;;;;;13.02;67.45;98846.63;5176016;27;44935;-74
2022/04/07 06:18:00;;;;;;;;;2.00;2.00;;;;;13.25;66.90;98874.91;5175755;27;45271;-70
2022/04/07 06:20:25;;;;;;;;;5.50;1.75;;;;;13.26;66.71;98863.25;5177837;27;45198;-74
2022/04/07 06:22:50;;;;;;;;;4.50;1.00;;;;;12.99;66.51;98835.09;5173383;27;46233;-73
2022/04/07 06:25:16;;;;;;;;;4.75;3.00;;;;;13.17;66.71;98848.22;5157584;27;45532;-72
2022/04/07 06:27:46;;;;;;;;;2.00;2.00;;;;;13.27;67.01;98876.66;5172991;27;45161;-70
2022/04/07 06:30:14;;;;;;;;;1.00;1.00;;;;;12.87;66.88;98794.13;5170897;27;45110;-73
2022/04/07 06:32:39;;;;;;;;;4.00;4.00;;;;;13.30;67.23;98853.38;5173386;27;45394;-73
2022/04/07 06:35:06;;;;;;;;;1.00;1.00;;;;;13.31;67.06;98861.41;5154313;27;45100;-73
2022/04/07 06:37:32;;;;;;;;;2.50;2.50;;;;;13.08;67.74;98829.56;5173554;27;45067;-72
2022/04/07 06:40:01;;;;;;;;;6.00;3.75;;;;;13.11;68.01;98820.59;5173862;27;45029;-74
2022/04/07 06:42:27;;;;;;;;;1.50;1.50;;;;;12.75;68.43;98756.78;5173436;27;45454;-73
2022/04/07 06:44:55;;;;;;;;;1.75;1.75;;;;;13.22;68.38;98830.25;5174174;27;45403;-72
2022/04/07 06:47:23;;;;;;;;;3.50;1.00;;;;;13.11;68.11;98850.97;5173019;27;45259;-74
2022/04/07 06:49:51;;;;;;;;;0.67;0.67;;;;;13.18;69.10;98847.31;5175392;27;45070;-71
2022/04/07 06:52:18;;;;;;;;;1.50;1.25;;;;;13.10;67.99;98846.53;5174116;27;46233;-72
2022/04/07 06:54:43;;;;;;;;;1.75;1.00;;;;;13.16;68.95;98856.28;5176069;27;45149;-71
2022/04/07 06:57:08;;;;;;;;;3.00;3.00;;;;;13.07;68.70;98825.13;5176164;27;45112;-71
2022/04/07 06:59:34;;;;;;;;;0.00;0.00;;;;;12.59;68.30;98745.41;5158743;27;45314;-72
2022/04/07 07:01:59;;;;;;;;;0.00;0.00;;;;;13.18;69.03;98835.69;5157802;27;45496;-74
2022/04/07 07:04:27;;;;;;;;;2.00;2.00;;;;;12.99;68.60;98800.22;5158029;27;45662;-72
2022/04/07 07:06:52;;;;;;;;;1.00;0.00;;;;;13.20;68.96;98845.50;5157374;27;45274;-72
2022/04/07 07:09:17;;;;;;;;;3.00;1.75;;;;;13.23;69.56;98845.44;5138728;27;45592;-72
2022/04/07 07:11:43;;;;;;;;;3.75;2.00;;;;;13.14;68.73;98802.66;5157169;27;46047;-74
2022/04/07 07:14:08;;;;;;;;;4.67;1.33;;;;;13.28;69.02;98827.47;5157637;27;45378;-71
2022/04/07 07:16:33;;;;;;;;;3.00;1.00;;;;;13.28;69.20;98824.81;5157979;27;45769;-74
2022/04/07 07:18:59;;;;;;;;;3.50;2.00;;;;;13.30;68.49;98830.16;5138457;27;45605;-72
2022/04/07 07:21:24;;;;;;;;;0.25;0.25;;;;;13.04;69.04;98785.84;5157153;27;46086;-72
2022/04/07 07:23:49;;;;;;;;;1.00;1.00;;;;;13.34;69.41;98815.78;5157103;27;45624;-72
2022/04/07 07:26:15;;;;;;;;;1.00;1.00;;;;;13.39;69.31;98832.69;5157084;27;45414;-71
2022/04/07 07:28:40;;;;;;;;;3.00;2.00;;;;;13.41;68.56;98828.22;5157655;27;45438;-72
2022/04/07 07:31:05;;;;;;;;;1.33;1.33;;;;;12.98;69.58;98756.44;5157802;27;45729;-73
2022/04/07 07:33:31;;;;;;;;;3.00;0.00;;;;;13.21;70.35;98790.06;5157932;27;45414;-71
2022/04/07 07:35:56;;;;;;;;;1.33;0.00;;;;;13.33;70.38;98822.09;5158525;27;45271;-73
2022/04/07 07:38:22;;;;;;;;;1.67;0.33;;;;;13.37;70.13;98825.59;5159480;27;45485;-75
2022/04/07 07:40:48;;;;;;;;;0.00;0.00;;;;;13.36;70.43;98808.59;5158701;27;46385;-71
2022/04/07 07:43:13;;;;;;;;;0.00;0.00;;;;;13.39;69.71;98797.81;5158778;27;45356;-69
2022/04/07 07:45:39;;;;;;;;;1.00;1.00;;;;;13.36;70.07;98802.34;5157486;27;45401;-72
2022/04/07 07:48:04;;;;;;;;;1.25;1.00;;;;;13.52;70.10;98803.88;5157561;27;45369;-72
2022/04/07 07:50:30;;;;;;;;;2.33;2.00;;;;;13.59;69.35;98802.84;5154701;27;45641;-73
2022/04/07 07:52:55;;;;;;;;;1.00;1.00;;;;;13.47;69.35;98770.00;5156793;27;45307;-74
2022/04/07 07:55:20;;;;;;;;;1.00;1.00;;;;;13.44;68.85;98744.97;5156950;27;45572;-70
2022/04/07 07:57:46;;;;;;;;;3.25;2.00;;;;;13.65;69.09;98777.72;5156564;27;45319;-72
2022/04/07 08:00:14;;;;;;;;;1.00;0.00;;;;;13.71;68.36;98771.34;5157060;27;45530;-72
2022/04/07 08:02:39;;;;;;;;;2.00;1.00;;;;;13.60;68.61;98774.25;5157027;27;45527;-72
2022/04/07 08:05:06;;;;;;;;;0.00;0.00;;;;;13.76;69.15;98793.63;5157018;27;45362;-70
2022/04/07 08:07:32;;;;;;;;;0.00;0.00;;;;;13.62;68.98;98759.00;5157148;27;45355;-73
2022/04/07 08:09:58;;;;;;;;;1.00;1.00;;;;;13.50;69.13;98741.31;5156360;27;45636;-73
2022/04/07 08:12:24;;;;;;;;;1.00;1.00;;;;;13.78;68.72;98792.69;5156465;27;45478;-72
2022/04/07 08:14:50;;;;;;;;;0.00;0.00;;;;;13.76;69.03;98770.38;5156474;27;45454;-70
2022/04/07 08:17:15;;;;;;;;;2.00;0.00;;;;;13.77;69.47;98772.13;5156438;27;45292;-73
2022/04/07 08:19:42;;;;;;;;;1.00;1.00;;;;;13.93;70.36;98801.38;5156313;27;46317;-71
2022/04/07 08:22:07;;;;;;;;;1.00;1.00;;;;;13.95;69.82;98792.38;5156620;27;45322;-75
2022/04/07 08:24:34;;;;;;;;;1.33;0.00;;;;;13.86;69.48;98773.78;5137721;27;45690;-71
2022/04/07 08:26:59;;;;;;;;;1.00;1.00;;;;;13.91;69.14;98777.25;5156421;27;45487;-71
2022/04/07 08:29:25;;;;;;;;;0.00;0.00;;;;;14.13;68.13;98785.75;5155977;27;45393;-73
2022/04/07 08:31:53;;;;;;;;;0.67;0.67;;;;;14.10;68.37;98769.69;5156236;27;45424;-74
2022/04/07 08:34:19;;;;;;;;;0.00;0.00;;;;;14.03;67.76;98740.34;5156822;27;45492;-71
2022/04/07 08:36:44;;;;;;;;;0.00;0.00;;;;;14.12;67.10;98749.09;5156684;27;45331;-71
2022/04/07 08:39:10;;;;;;;;;1.00;1.00;;;;;14.00;67.36;98711.75;5156223;27;46044;-72
2022/04/07 08:41:39;;;;;;;;;1.00;1.00;;;;;14.53;66.84;98768.81;5155991;27;45239;-72
2022/04/07 08:44:04;;;;;;;;;3.00;1.00;;;;;14.50;66.61;98752.78;5155998;27;45546;-72
2022/04/07 08:46:31;;;;;;;;;0.00;0.00;;;;;14.67;65.57;98773.06;5156778;27;45656;-72
2022/04/07 08:48:58;;;;;;;;;0.67;0.67;;;;;14.74;65.63;98782.75;5155826;27;45657;-74
2022/04/07 08:51:27;;;;;;;;;0.00;0.00;;;;;14.89;64.91;98768.06;5156379;27;45526;-71
2022/04/07 08:53:53;;;;;;;;;1.00;0.00;;;;;14.97;64.59;98759.84;5156410;27;45402;-74
2022/04/07 08:56:18;;;;;;;;;2.00;0.00;;;;;14.76;64.52;98720.88;5137299;27;45553;-72
2022/04/07 08:58:44;;;;;;;;;0.00;0.00;;;;;15.09;64.26;98772.97;5156058;27;46215;-72
2022/04/07 09:01:09;;;;;;;;;2.33;1.67;;;;;15.16;63.92;98779.97;5155495;27;45513;-72
2022/04/07 09:03:34;;;;;;;;;0.67;0.67;;;;;15.13;63.75;98772.00;5156023;27;45449;-72
2022/04/07 09:06:02;;;;;;;;;0.00;0.00;;;;;15.23;63.24;98761.91;5156171;27;45575;-75
2022/04/07 09:08:40;;;;;;;;;0.00;0.00;;;;;14.78;63.29;98684.97;5153938;27;48231;-73
2022/04/07 09:11:10;;;;;;;;;0.33;0.33;;;;;15.26;63.10;98751.94;5158262;27;45513;-75
2022/04/07 09:13:39;;;;;;;;;0.00;0.00;;;;;15.29;63.30;98770.72;5159631;27;45403;-74
2022/04/07 09:16:12;;;;;;;;;0.00;0.00;;;;;15.02;63.80;98705.00;5159347;27;45432;-75
2022/04/07 09:18:38;;;;;;;;;0.00;0.00;;;;;15.40;63.27;98783.88;5159107;27;47552;-73
2022/04/07 09:21:05;;;;;;;;;0.67;0.67;;;;;15.17;62.88;98738.72;5159299;27;45398;-70
2022/04/07 09:23:41;;;;;;;;;4.33;1.33;;;;;15.44;62.77;98757.75;5159716;27;45806;-76
2022/04/07 09:26:13;;;;;;;;;2.67;2.67;;;;;15.45;62.66;98749.66;5159364;27;45344;-74
2022/04/07 09:28:39;;;;;;;;;3.00;1.33;;;;;15.33;62.34;98711.41;5159081;27;45518;-70
2022/04/07 09:31:05;;;;;;;;;3.33;1.67;;;;;15.72;62.27;98782.16;5159363;27;45276;-72
2022/04/07 09:33:30;;;;;;;;;3.67;3.67;;;;;15.76;61.92;98775.81;5158907;27;45285;-73
2022/04/07 09:36:02;;;;;;;;;0.00;0.00;;;;;15.78;61.94;98776.66;5160415;27;45456;-70
2022/04/07 09:38:30;;;;;;;;;2.33;1.00;;;;;15.74;61.83;98739.03;5160509;27;46054;-72
2022/04/07 09:41:03;;;;;;;;;2.00;2.00;;;;;15.94;61.54;98785.22;5160371;27;45296;-73
2022/04/07 09:43:29;;;;;;;;;2.00;0.67;;;;;15.84;60.91;98760.34;5160522;27;45358;-72
2022/04/07 09:45:55;;;;;;;;;0.00;0.00;;;;;15.98;60.65;98786.00;5160110;27;45453;-73
2022/04/07 09:48:22;;;;;;;;;1.00;1.00;;;;;16.01;60.95;98788.63;5158731;27;45546;-72
2022/04/07 09:51:08;;;;;;;;;0.67;0.00;;;;;15.98;60.54;98780.63;5158840;27;45426;-71
2022/04/07 09:53:37;;;;;;;;;2.00;1.00;;;;;15.99;60.91;98771.63;5158716;27;45458;-71
2022/04/07 09:56:03;;;;;;;;;1.00;1.00;;;;;16.05;62.36;98789.41;5159128;27;45355;-75
2022/04/07 09:58:29;;;;;;;;;0.00;0.00;;;;;16.06;62.39;98796.59;5158526;27;47159;-72
2022/04/07 10:00:56;;;;;;;;;3.00;3.00;;;;;15.88;63.11;98766.53;5139876;27;45618;-71
2022/04/07 10:03:22;;;;;;;;;0.67;0.67;;;;;16.02;63.21;98795.78;5139850;27;45433;-72
2022/04/07 10:05:48;;;;;;;;;0.00;0.00;;;;;16.11;63.22;98800.91;5158975;27;45301;-73
2022/04/07 10:08:16;;;;;;;;;1.67;0.33;;;;;16.11;63.46;98798.22;5151747;27;45698;-76
2022/04/07 10:10:42;;;;;;;;;1.00;1.00;;;;;16.02;63.44;98798.47;5158489;27;45383;-74
2022/04/07 10:13:08;;;;;;;;;1.00;1.00;;;;;16.11;63.63;98817.06;5158440;27;45491;-73
2022/04/07 10:15:35;;;;;;;;;1.00;1.00;;;;;15.75;64.80;98802.75;5158857;27;45447;-71
2022/04/07 10:18:05;;;;;;;;;2.00;2.00;;;;;15.71;66.99;98874.63;5158007;27;46519;-69
2022/04/07 10:20:38;;;;;;;;;2.00;1.00;;;;;15.33;68.56;98854.91;5158308;27;45597;-75
2022/04/07 10:23:28;;;;;;;;;0.00;0.00;;;;;15.39;68.17;98884.38;5152461;27;45383;-73
2022/04/07 10:25:56;;;;;;;;;0.00;0.00;;;;;15.27;67.22;98887.34;5158332;27;45497;-75
2022/04/07 10:28:25;;;;;;;;;0.00;0.00;;;;;15.01;67.55;98853.81;5158321;27;46445;-75
2022/04/07 10:30:52;;;;;;;;;1.33;1.00;;;;;15.15;67.61;98890.31;5158352;27;45474;-72
2022/04/07 10:33:44;;;;;;;;;0.00;0.00;;;;;15.13;66.77;98902.88;5158311;27;45504;-72
2022/04/07 10:36:13;;;;;;;;;2.00;2.00;;;;;14.97;65.67;98879.03;5158161;27;45569;-74
2022/04/07 10:38:42;;;;;;;;;2.00;1.00;;;;;15.06;64.68;98888.69;5158432;27;46330;-73
2022/04/07 10:41:08;;;;;;;;;1.00;1.00;;;;;15.04;63.98;98899.47;5157824;27;45613;-75
2022/04/07 10:43:38;;;;;;;;;1.33;0.33;;;;;14.93;62.16;98888.97;5157859;27;45371;-75
2022/04/07 10:46:06;;;;;;;;;1.00;1.00;;;;;15.04;61.21;98895.91;5158786;27;45384;-75
2022/04/07 10:48:33;;;;;;;;;0.00;0.00;;;;;15.16;60.83;98935.09;5158298;27;46194;-74
2022/04/07 10:51:10;;;;;;;;;0.00;0.00;;;;;15.09;60.18;98919.09;5157700;27;45336;-72
2022/04/07 10:53:52;;;;;;;;;0.67;0.67;;;;;15.01;60.48;98898.66;5157727;27;45442;-72
2022/04/07 10:56:38;;;;;;;;;0.00;0.00;;;;;15.09;60.87;98924.47;5138887;27;45474;-71
2022/04/07 10:59:09;;;;;;;;;0.33;0.00;;;;;15.21;60.66;98919.75;5157774;27;46804;-76
2022/04/07 11:01:37;;;;;;;;;3.33;0.33;;;;;15.41;60.76;98947.13;5157535;27;45272;-72
2022/04/07 11:04:18;;;;;;;;;10.33;4.67;;;;;15.62;61.64;98940.38;5157625;27;45541;-72
2022/04/07 11:07:02;;;;;;;;;8.67;6.00;;;;;15.81;60.40;98948.91;5137322;27;45634;-72
2022/04/07 11:09:55;;;;;;;;;0.00;0.00;;;;;15.89;59.51;98943.34;5157175;27;46224;-72
2022/04/07 11:12:28;;;;;;;;;0.00;0.00;;;;;15.72;59.81;98932.94;5156993;27;45328;-71
2022/04/07 11:15:15;;;;;;;;;1.00;1.00;;;;;15.72;59.51;98902.44;5157577;27;45390;-72
2022/04/07 11:17:41;;;;;;;;;4.00;2.00;;;;;16.12;58.92;98950.84;5157296;27;45672;-72
2022/04/07 11:20:22;;;;;;;;;3.00;2.00;;;;;16.27;57.15;98962.16;5157594;27;45439;-71
2022/04/07 11:23:09;;;;;;;;;19.00;17.75;;;;;16.40;56.46;98964.50;5158400;27;45518;-74
2022/04/07 11:25:38;;;;;;;;;0.00;0.00;;;;;16.42;53.74;98964.47;5155276;27;45554;-73
2022/04/07 11:28:17;;;;;;;;;2.00;2.00;;;;;16.47;54.96;98978.72;5157292;27;45431;-74
2022/04/07 11:30:53;;;;;;;;;2.33;0.00;;;;;16.33;52.54;98948.53;5156775;27;46348;-72
2022/04/07 11:35:59;;;;;;;;;1.33;1.00;;;;;16.18;53.12;99004.56;5156976;27;45335;-75